EYVI

Vilnius International Airport

Airport
ICAO code
EYVI
IATA Code
VNTO
Summary
ICAO Region
EUR
ICAO Territory
Location

Porubanek, Vilnius District

Serving
Vilnius
Elevation
646 ft
Coordinates
54° 38' 13" N , 25° 17' 16" E
KCC
Metar
EYVI 301620Z 12005KT 090V150 CAVOK 20/11 Q1010 NOSIG

Vilnius Airport is the largest civil airport in Lithuania. It is located 5.9 km south of Vilnius, the capital of Lithuania.

Climatology

Humid continental climate (Köppen climate classification Dfb)

Runways

Designator Length Width Surface Rops
2/20 2515 50 ASP Yes/Yes

Airport map

Aerial View

SKYbrary Partners:

Safety knowledge contributed by: